Time;durP1;ratioP1;P1;durP2;ratioP2;P2;SDS_P1;SDS_P2;PMS_P1;PMS_P2;Temp;Humidity;BMP_temperature;BMP_pressure;BME280_temperature;BME280_humidity;BME280_pressure;Samples;Min_cycle;Max_cycle;Signal;HPM_P1;HPM_P2
2023/09/24 00:01:26;;;;;;;0.20;0.20;;;;;;;7.89;100.00;102150.78;5114918;28;20031;-45
2023/09/24 00:03:51;;;;;;;0.20;0.20;;;;;;;7.80;100.00;102160.50;5116077;28;20039;-43
2023/09/24 00:06:17;;;;;;;0.20;0.20;;;;;;;7.80;100.00;102155.38;5115610;28;20023;-45
2023/09/24 00:08:42;;;;;;;0.22;0.22;;;;;;;7.81;100.00;102156.22;5115277;28;20482;-44
2023/09/24 00:11:08;;;;;;;0.28;0.28;;;;;;;7.78;100.00;102156.06;5115909;28;20373;-42
2023/09/24 00:13:35;;;;;;;0.30;0.30;;;;;;;7.73;100.00;102159.22;5115543;28;20030;-42
2023/09/24 00:16:06;;;;;;;0.20;0.20;;;;;;;7.73;100.00;102171.16;5115284;28;20384;-42
2023/09/24 00:18:32;;;;;;;0.22;0.22;;;;;;;7.78;100.00;102159.50;5115680;28;20688;-45
2023/09/24 00:20:57;;;;;;;0.20;0.20;;;;;;;7.78;100.00;102168.88;5115614;28;20024;-46
2023/09/24 00:23:23;;;;;;;0.20;0.20;;;;;;;7.80;100.00;102168.19;5114496;28;20030;-44
2023/09/24 00:25:49;;;;;;;0.20;0.20;;;;;;;7.71;100.00;102172.75;5115658;28;20078;-42
2023/09/24 00:28:15;;;;;;;0.30;0.30;;;;;;;7.62;100.00;102172.16;5115501;28;20049;-45
2023/09/24 00:30:43;;;;;;;0.30;0.30;;;;;;;7.62;100.00;102172.16;5115164;28;20058;-43
2023/09/24 00:33:08;;;;;;;;;;;;;;;7.72;100.00;102177.06;5116073;28;20031;-41
2023/09/24 00:35:34;;;;;;;0.20;0.20;;;;;;;7.67;100.00;102178.47;5115253;28;19915;-42
2023/09/24 00:37:59;;;;;;;0.22;0.22;;;;;;;7.69;100.00;102176.91;5114585;28;20102;-40
2023/09/24 00:40:25;;;;;;;0.30;0.30;;;;;;;7.58;100.00;102178.78;5115118;28;20031;-41
2023/09/24 00:42:50;;;;;;;0.25;0.25;;;;;;;7.70;100.00;102171.84;5115542;28;20379;-44
2023/09/24 00:45:15;;;;;;;0.20;0.20;;;;;;;7.69;100.00;102182.03;5114237;28;20035;-41
2023/09/24 00:47:47;;;;;;;0.20;0.20;;;;;;;7.78;100.00;102182.59;5115839;28;20106;-41
2023/09/24 00:50:13;;;;;;;0.20;0.20;;;;;;;7.89;100.00;102185.84;5114951;28;20027;-44
2023/09/24 00:52:42;;;;;;;0.20;0.20;;;;;;;7.80;100.00;102187.81;5114663;28;20455;-43
2023/09/24 00:55:08;;;;;;;0.30;0.30;;;;;;;7.73;100.00;102195.16;5115335;28;20034;-42
2023/09/24 00:57:35;;;;;;;0.10;0.10;;;;;;;7.65;100.00;102193.78;5113717;28;20393;-43
2023/09/24 01:00:06;;;;;;;0.20;0.20;;;;;;;7.81;100.00;102198.22;5114943;28;20382;-42
2023/09/24 01:02:34;;;;;;;0.30;0.30;;;;;;;7.95;100.00;102188.78;5114741;28;20024;-40
2023/09/24 01:05:00;;;;;;;0.20;0.20;;;;;;;8.02;100.00;102190.06;5114101;28;20019;-42
2023/09/24 01:07:26;;;;;;;0.30;0.30;;;;;;;7.99;100.00;102182.16;5114813;28;20055;-41
2023/09/24 01:09:51;;;;;;;0.20;0.20;;;;;;;7.87;100.00;102180.59;5114962;28;20077;-41
2023/09/24 01:12:21;;;;;;;0.20;0.20;;;;;;;7.98;100.00;102185.50;5113744;28;20016;-46
2023/09/24 01:14:48;;;;;;;0.20;0.20;;;;;;;8.00;100.00;102191.63;5114670;28;20032;-41
2023/09/24 01:17:14;;;;;;;0.20;0.20;;;;;;;8.03;100.00;102186.69;5114266;28;20060;-43
2023/09/24 01:19:40;;;;;;;0.30;0.30;;;;;;;8.03;100.00;102190.16;5113163;28;20104;-40
2023/09/24 01:22:06;;;;;;;0.20;0.20;;;;;;;8.09;100.00;102187.06;5114558;28;20455;-42
2023/09/24 01:24:31;;;;;;;0.20;0.20;;;;;;;8.06;100.00;102186.88;5114445;28;20111;-45
2023/09/24 01:26:57;;;;;;;0.20;0.20;;;;;;;8.07;100.00;102183.53;5113796;28;20408;-42
2023/09/24 01:29:23;;;;;;;0.22;0.22;;;;;;;8.07;100.00;102183.53;5114170;28;20030;-41
2023/09/24 01:31:49;;;;;;;0.28;0.28;;;;;;;8.11;100.00;102184.59;5114416;28;20043;-41
2023/09/24 01:34:15;;;;;;;0.30;0.30;;;;;;;8.09;100.00;102189.63;5113136;28;20485;-43
2023/09/24 01:36:41;;;;;;;0.20;0.20;;;;;;;8.12;100.00;102182.13;5114470;28;20106;-43
2023/09/24 01:39:06;;;;;;;0.20;0.20;;;;;;;8.10;100.00;102187.97;5114322;28;20024;-45
2023/09/24 01:41:32;;;;;;;0.20;0.20;;;;;;;8.06;100.00;102186.88;5113118;28;20032;-41
2023/09/24 01:43:57;;;;;;;0.20;0.20;;;;;;;8.06;100.00;102186.88;5114309;28;20024;-45
2023/09/24 01:46:23;;;;;;;0.30;0.30;;;;;;;8.00;100.00;102176.22;5113756;28;20102;-45
2023/09/24 01:48:54;;;;;;;0.20;0.20;;;;;;;8.04;100.00;102183.31;5113151;28;20107;-41
2023/09/24 01:51:20;;;;;;;0.22;0.22;;;;;;;8.00;100.00;102182.25;5113773;28;20421;-45
2023/09/24 01:53:45;;;;;;;0.10;0.10;;;;;;;7.99;100.00;102180.50;5113174;28;20174;-40
2023/09/24 01:56:12;;;;;;;0.30;0.30;;;;;;;8.05;100.00;102179.97;5113747;28;20138;-43
2023/09/24 01:58:38;;;;;;;0.20;0.20;;;;;;;8.00;100.00;102178.81;5113833;28;20378;-42
2023/09/24 02:01:03;;;;;;;0.20;0.20;;;;;;;8.00;100.00;102181.38;5112783;28;20539;-43
2023/09/24 02:03:29;;;;;;;0.25;0.25;;;;;;;8.00;100.00;102186.50;5113737;28;20039;-45
2023/09/24 02:05:55;;;;;;;0.28;0.28;;;;;;;7.98;100.00;102182.94;5113865;28;20020;-43
2023/09/24 02:08:20;;;;;;;0.22;0.22;;;;;;;7.95;100.00;102177.63;5112765;28;20030;-41
2023/09/24 02:10:47;;;;;;;0.20;0.20;;;;;;;7.99;100.00;102172.78;5113828;28;20023;-45
2023/09/24 02:13:12;;;;;;;0.20;0.20;;;;;;;7.90;100.00;102174.75;5113378;28;20019;-42
2023/09/24 02:15:43;;;;;;;0.30;0.30;;;;;;;7.94;100.00;102184.47;5112723;28;20508;-40
2023/09/24 02:18:09;;;;;;;0.15;0.15;;;;;;;7.92;100.00;102186.03;5113504;28;20023;-44
2023/09/24 02:20:35;;;;;;;0.20;0.20;;;;;;;7.89;100.00;102189.28;5113276;28;20027;-46
2023/09/24 02:23:02;;;;;;;0.20;0.20;;;;;;;7.90;100.00;102191.06;5112818;28;20098;-40
2023/09/24 02:25:32;;;;;;;0.20;0.20;;;;;;;7.88;100.00;102191.78;5113424;28;20034;-42
2023/09/24 02:27:59;;;;;;;0.20;0.20;;;;;;;7.91;100.00;102200.56;5113589;28;20020;-41
2023/09/24 02:30:27;;;;;;;0.30;0.30;;;;;;;7.87;100.00;102205.41;5111199;28;20489;-41
2023/09/24 02:32:53;;;;;;;0.20;0.20;;;;;;;7.85;100.00;102210.44;5113454;28;20101;-41
2023/09/24 02:35:18;;;;;;;0.30;0.30;;;;;;;7.84;100.00;102211.22;5113189;28;20051;-43
2023/09/24 02:37:47;;;;;;;0.20;0.20;;;;;;;7.81;100.00;102210.13;5112534;28;20020;-41
2023/09/24 02:42:48;;;;;;;0.20;0.20;;;;;;;7.80;100.00;102209.25;5112753;28;20039;-41
2023/09/24 02:45:18;;;;;;;0.20;0.20;;;;;;;7.78;100.00;102205.69;5113179;28;20024;-45
2023/09/24 02:47:50;;;;;;;0.30;0.30;;;;;;;7.72;100.00;102210.44;5113371;28;20028;-44
2023/09/24 02:50:22;;;;;;;0.30;0.30;;;;;;;7.73;100.00;102212.22;5112121;28;20485;-44
2023/09/24 02:52:48;;;;;;;0.30;0.30;;;;;;;7.78;100.00;102209.94;5113284;28;20030;-43
2023/09/24 02:55:15;;;;;;;0.20;0.20;;;;;;;7.72;100.00;102207.88;5112730;28;20378;-40
2023/09/24 02:57:42;;;;;;;0.20;0.20;;;;;;;7.73;100.00;102207.09;5112332;28;20039;-44
2023/09/24 03:00:14;;;;;;;0.20;0.20;;;;;;;7.70;100.00;102212.03;5113107;28;20440;-44
2023/09/24 03:02:40;;;;;;;0.20;0.20;;;;;;;7.67;100.00;102211.81;5113130;28;20474;-42
2023/09/24 03:05:08;;;;;;;0.20;0.20;;;;;;;7.63;100.00;102205.63;5112316;28;20066;-41
2023/09/24 03:07:35;;;;;;;0.20;0.20;;;;;;;7.64;100.00;102209.06;5112718;28;20072;-42
2023/09/24 03:10:00;;;;;;;0.20;0.20;;;;;;;7.65;100.00;102208.28;5112948;28;20390;-44
2023/09/24 03:12:25;;;;;;;0.20;0.20;;;;;;;7.58;100.00;102213.03;5111967;28;20016;-45
2023/09/24 03:14:50;;;;;;;0.30;0.30;;;;;;;7.64;100.00;102216.78;5113155;28;20035;-43
2023/09/24 03:17:16;;;;;;;0.20;0.20;;;;;;;7.57;100.00;102218.94;5112616;28;20019;-46
2023/09/24 03:19:41;;;;;;;0.20;0.20;;;;;;;7.57;100.00;102215.50;5112103;28;20039;-44
2023/09/24 03:22:06;;;;;;;0.30;0.30;;;;;;;7.55;100.00;102217.06;5113078;28;20036;-41
2023/09/24 03:24:32;;;;;;;0.30;0.30;;;;;;;7.50;100.00;102215.88;5112522;28;20471;-45
2023/09/24 03:26:57;;;;;;;0.28;0.28;;;;;;;7.51;100.00;102218.53;5112315;28;20023;-46
2023/09/24 03:29:22;;;;;;;0.30;0.30;;;;;;;7.44;100.00;102218.97;5112706;28;20087;-45
2023/09/24 03:31:48;;;;;;;0.30;0.30;;;;;;;7.45;100.00;102236.13;5112918;28;20027;-42
2023/09/24 03:34:13;;;;;;;0.20;0.20;;;;;;;7.44;100.00;102223.19;5111833;28;20168;-45
2023/09/24 03:36:39;;;;;;;0.30;0.30;;;;;;;7.43;100.00;102232.56;5112859;28;20056;-43
2023/09/24 03:39:06;;;;;;;0.20;0.20;;;;;;;7.39;100.00;102233.16;5111931;28;20039;-42
2023/09/24 03:41:31;;;;;;;0.20;0.20;;;;;;;7.40;100.00;102237.50;5112950;28;20031;-42
2023/09/24 03:43:56;;;;;;;0.20;0.20;;;;;;;7.39;100.00;102243.41;5116598;28;20034;-46
2023/09/24 03:46:22;;;;;;;0.20;0.20;;;;;;;7.39;100.00;102240.84;5115662;28;20561;-42
2023/09/24 03:48:47;;;;;;;0.30;0.30;;;;;;;7.35;100.00;102244.00;5116547;28;20027;-40
2023/09/24 03:51:12;;;;;;;0.20;0.20;;;;;;;7.37;100.00;102247.56;5116105;28;20469;-44
2023/09/24 03:53:38;;;;;;;0.10;0.10;;;;;;;7.36;100.00;102248.34;5115609;28;20046;-42
2023/09/24 03:56:06;;;;;;;0.30;0.30;;;;;;;7.30;100.00;102251.41;5116072;28;20481;-41
2023/09/24 03:58:32;;;;;;;0.22;0.22;;;;;;;7.32;100.00;102243.78;5116138;28;20027;-42
2023/09/24 04:00:57;;;;;;;0.20;0.20;;;;;;;7.34;100.00;102242.22;5115481;28;20032;-40
2023/09/24 04:03:23;;;;;;;0.30;0.30;;;;;;;7.33;100.00;102243.88;5116013;28;20379;-40
2023/09/24 04:05:48;;;;;;;0.20;0.20;;;;;;;7.31;100.00;102252.28;5116179;28;20035;-40
2023/09/24 04:08:13;;;;;;;0.20;0.20;;;;;;;7.30;100.00;102253.97;5115019;28;20047;-42
2023/09/24 04:10:39;;;;;;;0.30;0.30;;;;;;;7.31;100.00;102252.28;5116138;28;20485;-40
2023/09/24 04:13:04;;;;;;;0.25;0.25;;;;;;;7.34;100.00;102257.63;5116025;28;20443;-42
2023/09/24 04:15:29;;;;;;;0.20;0.20;;;;;;;7.19;100.00;102258.41;5114914;28;20089;-42
2023/09/24 04:17:56;;;;;;;0.30;0.30;;;;;;;7.22;100.00;102253.47;5116027;28;20027;-40
2023/09/24 04:20:22;;;;;;;0.20;0.20;;;;;;;7.15;100.00;102256.38;5115449;28;20486;-40
2023/09/24 04:22:48;;;;;;;0.20;0.20;;;;;;;7.16;100.00;102258.16;5114978;28;20058;-40
2023/09/24 04:25:14;;;;;;;0.20;0.20;;;;;;;7.18;100.00;102260.84;5115622;28;20020;-40
2023/09/24 04:27:41;;;;;;;0.20;0.20;;;;;;;7.19;100.00;102265.19;5115894;28;20031;-40
2023/09/24 04:30:16;;;;;;;0.20;0.20;;;;;;;7.15;100.00;102271.78;5115148;28;20028;-40
2023/09/24 04:32:48;;;;;;;0.30;0.30;;;;;;;7.13;100.00;102268.25;5115618;28;20513;-41
2023/09/24 04:35:14;;;;;;;0.20;0.20;;;;;;;7.15;100.00;102270.91;5115200;28;20064;-40
2023/09/24 04:37:39;;;;;;;0.30;0.30;;;;;;;7.06;100.00;102260.91;5114966;28;20016;-40
2023/09/24 04:40:11;;;;;;;0.22;0.22;;;;;;;7.06;100.00;102266.03;5115573;28;20030;-40
2023/09/24 04:42:37;;;;;;;0.20;0.20;;;;;;;7.07;100.00;102265.25;5115004;28;20027;-40
2023/09/24 04:45:03;;;;;;;0.20;0.20;;;;;;;7.00;100.00;102269.09;5115327;28;20027;-40
2023/09/24 04:47:29;;;;;;;0.20;0.20;;;;;;;6.94;100.00;102270.38;5115060;28;20034;-40
2023/09/24 04:49:54;;;;;;;0.30;0.30;;;;;;;6.91;100.00;102276.16;5114518;28;20024;-40
2023/09/24 04:52:20;;;;;;;0.30;0.30;;;;;;;6.89;100.00;102268.38;5115153;28;20463;-40
2023/09/24 04:54:45;;;;;;;0.22;0.22;;;;;;;6.88;100.00;102266.59;5114284;28;20103;-40
2023/09/24 04:57:11;;;;;;;0.20;0.20;;;;;;;6.92;100.00;102268.56;5114234;28;20093;-41
2023/09/24 04:59:36;;;;;;;0.20;0.20;;;;;;;6.94;100.00;102270.38;5114834;28;20046;-41
2023/09/24 05:02:01;;;;;;;0.30;0.30;;;;;;;7.01;100.00;102272.53;5114921;28;20453;-43
2023/09/24 05:04:27;;;;;;;0.38;0.38;;;;;;;7.02;100.00;102270.09;5113815;28;20039;-41
2023/09/24 05:06:54;;;;;;;0.30;0.30;;;;;;;7.02;100.00;102264.06;5115252;28;20027;-42
2023/09/24 05:09:20;;;;;;;0.25;0.25;;;;;;;7.08;100.00;102274.72;5114870;28;20038;-42
2023/09/24 05:11:46;;;;;;;0.20;0.20;;;;;;;7.11;100.00;102269.81;5114010;28;20495;-40
2023/09/24 05:14:11;;;;;;;0.30;0.30;;;;;;;7.09;100.00;102279.09;5114646;28;20045;-43
2023/09/24 05:16:36;;;;;;;0.28;0.28;;;;;;;7.10;100.00;102278.28;5114599;28;20031;-45
2023/09/24 05:19:03;;;;;;;0.25;0.25;;;;;;;7.03;100.00;102284.66;5113756;28;20020;-41
2023/09/24 05:21:28;;;;;;;0.20;0.20;;;;;;;6.95;100.00;102282.41;5114365;28;20028;-43
2023/09/24 05:23:54;;;;;;;0.20;0.20;;;;;;;6.98;100.00;102292.84;5114708;28;20431;-40
2023/09/24 05:26:20;;;;;;;0.20;0.20;;;;;;;6.87;100.00;102295.56;5113437;28;20020;-43
2023/09/24 05:28:45;;;;;;;0.20;0.20;;;;;;;6.84;100.00;102290.25;5114448;28;20078;-45
2023/09/24 05:31:10;;;;;;;0.30;0.30;;;;;;;6.82;100.00;102302.06;5114480;28;20020;-42
2023/09/24 05:33:36;;;;;;;0.20;0.20;;;;;;;6.82;100.00;102306.31;5113230;28;20030;-42
2023/09/24 05:36:01;;;;;;;0.20;0.20;;;;;;;6.68;100.00;102303.66;5114238;28;20139;-41
2023/09/24 05:38:29;;;;;;;0.28;0.28;;;;;;;6.69;100.00;102299.44;5113923;28;20024;-44
2023/09/24 05:40:55;;;;;;;0.30;0.30;;;;;;;6.75;100.00;102311.00;5113317;28;20027;-41
2023/09/24 05:43:21;;;;;;;0.30;0.30;;;;;;;6.70;100.00;102316.56;5113744;28;20534;-44
2023/09/24 05:45:47;;;;;;;0.30;0.30;;;;;;;6.67;100.00;102321.50;5113259;28;20103;-43
2023/09/24 05:48:14;;;;;;;0.20;0.20;;;;;;;6.56;100.00;102323.34;5113679;28;20030;-42
2023/09/24 05:50:39;;;;;;;0.20;0.20;;;;;;;6.67;100.00;102324.94;5114147;28;20102;-42
2023/09/24 05:53:06;;;;;;;0.20;0.20;;;;;;;6.63;100.00;102329.75;5113322;28;20442;-45
2023/09/24 05:55:31;;;;;;;0.20;0.20;;;;;;;6.65;100.00;102328.19;5113769;28;20036;-43
2023/09/24 05:57:57;;;;;;;0.20;0.20;;;;;;;6.62;100.00;102328.84;5113757;28;20055;-44
2023/09/24 06:00:22;;;;;;;0.30;0.30;;;;;;;6.72;100.00;102330.41;5112656;28;20486;-44
2023/09/24 06:02:48;;;;;;;0.30;0.30;;;;;;;6.76;100.00;102334.94;5113720;28;20075;-45
2023/09/24 06:05:13;;;;;;;0.30;0.30;;;;;;;6.78;100.00;102330.81;5113542;28;20390;-45
2023/09/24 06:07:39;;;;;;;0.20;0.20;;;;;;;6.84;100.00;102333.81;5113116;28;20015;-42
2023/09/24 06:10:04;;;;;;;0.30;0.30;;;;;;;6.88;100.00;102337.47;5113720;28;20367;-42
2023/09/24 06:12:31;;;;;;;0.20;0.20;;;;;;;6.94;100.00;102329.31;5113750;28;20034;-42
2023/09/24 06:14:56;;;;;;;0.30;0.30;;;;;;;7.00;100.00;102332.31;5112995;28;20055;-44
2023/09/24 06:17:21;;;;;;;0.30;0.30;;;;;;;7.07;100.00;102331.91;5113139;28;20054;-44
2023/09/24 06:19:47;;;;;;;0.17;0.17;;;;;;;7.09;100.00;102336.38;5113761;28;20467;-42
2023/09/24 06:22:12;;;;;;;0.20;0.20;;;;;;;7.20;100.00;102334.50;5112229;28;20059;-41
2023/09/24 06:24:37;;;;;;;0.20;0.20;;;;;;;7.32;100.00;102338.69;5113613;28;20024;-41
2023/09/24 06:27:04;;;;;;;0.17;0.17;;;;;;;7.38;100.00;102342.53;5113543;28;20463;-42
2023/09/24 06:29:29;;;;;;;0.30;0.30;;;;;;;7.46;100.00;102340.50;5112154;28;20515;-44
2023/09/24 06:31:55;;;;;;;0.30;0.30;;;;;;;7.53;100.00;102342.69;5113295;28;20028;-44
2023/09/24 06:34:20;;;;;;;0.28;0.28;;;;;;;7.58;100.00;102349.00;5113017;28;20104;-44
2023/09/24 06:36:46;;;;;;;0.30;0.30;;;;;;;7.63;100.00;102345.84;5112648;28;20031;-44
2023/09/24 06:39:13;;;;;;;0.30;0.30;;;;;;;7.72;100.00;102349.00;5113249;28;20385;-43
2023/09/24 06:41:39;;;;;;;0.20;0.20;;;;;;;7.78;100.00;102356.25;5113215;28;20096;-43
2023/09/24 06:44:05;;;;;;;0.20;0.20;;;;;;;7.82;100.00;102361.66;5112730;28;20050;-43
2023/09/24 06:46:30;;;;;;;0.30;0.30;;;;;;;7.84;100.00;102357.53;5113107;28;20375;-44
2023/09/24 06:48:56;;;;;;;0.20;0.20;;;;;;;7.93;100.00;102361.47;5113151;28;20012;-41
2023/09/24 06:51:21;;;;;;;0.20;0.20;;;;;;;7.99;100.00;102357.66;5112888;28;20047;-44
2023/09/24 06:53:50;;;;;;;0.22;0.22;;;;;;;8.05;100.00;102357.13;5113308;28;20051;-44
2023/09/24 06:56:16;;;;;;;0.20;0.20;;;;;;;8.09;100.00;102366.81;5111827;28;20504;-44
2023/09/24 06:58:41;;;;;;;0.30;0.30;;;;;;;8.17;100.00;102364.72;5113144;28;20073;-44
2023/09/24 07:01:06;;;;;;;0.30;0.30;;;;;;;8.24;100.00;102362.66;5112783;28;20027;-42
2023/09/24 07:03:35;;;;;;;0.20;0.20;;;;;;;8.32;100.00;102365.72;5112067;28;20049;-43
2023/09/24 07:06:05;;;;;;;0.20;0.20;;;;;;;8.40;100.00;102368.75;5113185;28;20106;-45
2023/09/24 07:08:33;;;;;;;0.30;0.30;;;;;;;8.50;100.00;102370.28;5112709;28;20022;-46
2023/09/24 07:11:24;;;;;;;0.30;0.30;;;;;;;8.62;100.00;102365.00;5112224;28;20028;-41
2023/09/24 07:13:50;;;;;;;0.20;0.20;;;;;;;8.75;100.00;102371.78;5112848;28;20036;-44
2023/09/24 07:16:15;;;;;;;0.20;0.20;;;;;;;8.85;100.00;102364.72;5112883;28;20030;-44
2023/09/24 07:18:41;;;;;;;0.20;0.20;;;;;;;8.97;100.00;102366.28;5116340;28;20022;-42
2023/09/24 07:21:07;;;;;;;0.20;0.20;;;;;;;9.06;100.00;102375.44;5116941;28;20023;-42
2023/09/24 07:23:32;;;;;;;0.20;0.20;;;;;;;9.16;100.00;102373.41;5116555;28;20026;-44
2023/09/24 07:25:57;;;;;;;0.20;0.20;;;;;;;9.33;100.00;102382.13;5115894;28;20207;-41
2023/09/24 07:28:25;;;;;;;0.28;0.28;;;;;;;9.40;100.00;102379.13;5116198;28;20114;-46
2023/09/24 07:30:53;;;;;;;0.20;0.20;;;;;;;9.54;100.00;102388.56;5116982;28;20032;-44
2023/09/24 07:33:20;;;;;;;0.20;0.20;;;;;;;9.66;100.00;102395.22;5115801;28;20019;-44
2023/09/24 07:35:46;;;;;;;0.20;0.20;;;;;;;9.73;100.00;102387.03;5116707;28;20039;-43
2023/09/24 07:38:11;;;;;;;0.20;0.20;;;;;;;9.85;100.00;102386.84;5116188;28;20020;-41
2023/09/24 07:40:37;;;;;;;0.20;0.20;;;;;;;9.99;100.00;102393.69;5116412;28;20027;-41
2023/09/24 07:43:03;;;;;;;0.20;0.20;;;;;;;10.14;100.00;102400.53;5116628;28;20019;-44
2023/09/24 07:45:28;;;;;;;0.20;0.20;;;;;;;10.25;100.00;102389.13;5115531;28;20413;-46
2023/09/24 07:47:54;;;;;;;0.20;0.20;;;;;;;10.35;100.00;102398.25;5116626;28;20428;-44
2023/09/24 07:50:19;;;;;;;0.20;0.20;;;;;;;10.46;100.00;102399.75;5116004;28;20377;-46
2023/09/24 07:52:44;;;;;;;0.20;0.20;;;;;;;10.59;100.00;102397.84;5115506;28;20470;-44
2023/09/24 07:55:09;;;;;;;0.20;0.20;;;;;;;10.71;100.00;102398.50;5116169;28;20027;-43
2023/09/24 07:57:35;;;;;;;0.20;0.20;;;;;;;10.82;100.00;102402.56;5115876;28;20043;-46
2023/09/24 08:00:01;;;;;;;0.20;0.20;;;;;;;10.95;100.00;102405.78;5115592;28;20031;-43
2023/09/24 08:02:26;;;;;;;0.20;0.20;;;;;;;11.07;100.00;102405.56;5115980;28;20023;-45
2023/09/24 08:04:52;;;;;;;0.10;0.10;;;;;;;11.22;100.00;102408.94;5116230;28;20030;-45
2023/09/24 08:07:17;;;;;;;0.20;0.20;;;;;;;11.33;100.00;102401.75;5115003;28;20027;-42
2023/09/24 08:09:43;;;;;;;0.20;0.20;;;;;;;11.49;100.00;102406.91;5115986;28;20030;-44
2023/09/24 08:12:08;;;;;;;0.20;0.20;;;;;;;11.53;100.00;102403.66;5115915;28;20020;-45
2023/09/24 08:14:33;;;;;;;0.20;0.20;;;;;;;11.66;100.00;102404.28;5115144;28;20032;-42
2023/09/24 08:16:59;;;;;;;0.20;0.20;;;;;;;11.81;100.00;102405.06;5115734;28;20023;-44
2023/09/24 08:19:30;;;;;;;0.17;0.17;;;;;;;11.89;100.00;102408.00;5115653;28;20024;-41
2023/09/24 08:21:56;;;;;;;0.17;0.17;;;;;;;12.02;100.00;102409.53;5114986;28;20035;-43
2023/09/24 08:24:22;;;;;;;0.20;0.20;;;;;;;12.06;100.00;102416.63;5115334;28;20092;-43
2023/09/24 08:26:47;;;;;;;0.20;0.20;;;;;;;12.19;100.00;102403.47;5115667;28;20020;-45
2023/09/24 08:29:12;;;;;;;0.10;0.10;;;;;;;12.36;100.00;102421.47;5114307;28;20027;-46
2023/09/24 08:31:37;;;;;;;0.10;0.10;;;;;;;12.52;100.00;102416.22;5115685;28;20028;-42
2023/09/24 08:34:03;;;;;;;0.10;0.10;;;;;;;12.66;100.00;102408.22;5115415;28;20059;-42
2023/09/24 08:36:29;;;;;;;0.10;0.10;;;;;;;12.84;100.00;102410.75;5114405;28;20031;-41
2023/09/24 08:38:55;;;;;;;0.10;0.10;;;;;;;12.97;100.00;102412.19;5115394;28;20016;-45
2023/09/24 08:41:20;;;;;;;0.20;0.20;;;;;;;13.13;100.00;102418.94;5115196;28;20539;-45
2023/09/24 08:43:46;;;;;;;0.10;0.10;;;;;;;13.30;100.00;102417.09;5114716;28;20068;-43
2023/09/24 08:46:12;;;;;;;0.10;0.10;;;;;;;13.27;100.00;102420.44;5115124;28;20026;-42
2023/09/24 08:48:39;;;;;;;0.10;0.10;;;;;;;13.55;100.00;102418.19;5114591;28;20395;-43
2023/09/24 08:51:06;;;;;;;0.10;0.10;;;;;;;13.61;100.00;102423.63;5115258;28;20444;-43
2023/09/24 08:53:33;;;;;;;0.15;0.15;;;;;;;13.79;100.00;102429.56;5114950;28;20038;-43
2023/09/24 08:55:58;;;;;;;0.10;0.10;;;;;;;13.79;100.00;102428.72;5114072;28;20466;-47
2023/09/24 08:58:25;;;;;;;0.10;0.10;;;;;;;13.87;100.00;102418.66;5114920;28;20026;-44
2023/09/24 09:00:54;;;;;;;0.20;0.20;;;;;;;13.94;100.00;102423.25;5115005;28;20027;-46
2023/09/24 09:03:19;;;;;;;0.17;0.17;;;;;;;14.22;100.00;102422.66;5113937;28;20016;-45
2023/09/24 09:05:45;;;;;;;0.20;0.20;;;;;;;14.36;100.00;102422.31;5114894;28;20169;-42
2023/09/24 09:08:11;;;;;;;0.10;0.10;;;;;;;14.57;100.00;102419.69;5114977;28;20031;-45
2023/09/24 09:10:37;;;;;;;0.10;0.10;;;;;;;14.71;100.00;102426.31;5113943;28;20474;-46
2023/09/24 09:13:06;;;;;;;0.10;0.10;;;;;;;14.92;100.00;102425.34;5114957;28;20111;-43
2023/09/24 09:15:32;;;;;;;0.10;0.10;;;;;;;15.11;100.00;102411.34;5114440;28;20238;-45
2023/09/24 09:17:58;;;;;;;0.10;0.10;;;;;;;15.20;100.00;102416.84;5113821;28;20394;-42
2023/09/24 09:20:45;;;;;;;0.10;0.10;;;;;;;15.44;100.00;102418.53;5114199;28;20467;-42
2023/09/24 09:23:18;;;;;;;0.10;0.10;;;;;;;15.57;100.00;102409.44;5114650;28;20418;-44
2023/09/24 09:25:48;;;;;;;0.10;0.10;;;;;;;15.62;100.00;102410.47;5113709;28;20459;-43
2023/09/24 09:28:21;;;;;;;0.10;0.10;;;;;;;15.89;100.00;102399.28;5114182;28;20019;-43
2023/09/24 09:31:11;;;;;;;0.10;0.10;;;;;;;16.11;100.00;102395.63;5113636;28;20026;-46
2023/09/24 09:33:40;;;;;;;0.10;0.10;;;;;;;16.37;97.54;102388.66;5101592;28;20043;-47
2023/09/24 09:36:23;;;;;;;0.10;0.10;;;;;;;16.67;95.69;102386.91;5114454;28;20020;-44
2023/09/24 09:38:50;;;;;;;0.00;0.00;;;;;;;17.05;93.24;102380.19;5113515;28;20043;-42
2023/09/24 09:41:17;;;;;;;0.05;0.05;;;;;;;17.40;88.68;102385.50;5113529;28;20031;-43
2023/09/24 09:43:45;;;;;;;0.10;0.10;;;;;;;17.51;83.58;102384.88;5114150;28;20043;-46
2023/09/24 09:46:12;;;;;;;0.05;0.05;;;;;;;17.89;83.38;102388.41;5113512;28;20102;-42
2023/09/24 09:48:40;;;;;;;0.05;0.05;;;;;;;18.16;79.69;102365.59;5114057;28;20032;-47
2023/09/24 09:51:10;;;;;;;0.00;0.00;;;;;;;18.41;79.30;102374.81;5114095;28;20015;-46
2023/09/24 09:53:38;;;;;;;0.05;0.05;;;;;;;18.66;75.45;102373.63;5113257;28;20020;-47
2023/09/24 09:56:05;;;;;;;0.10;0.10;;;;;;;18.73;71.60;102370.28;5113685;28;20111;-43
2023/09/24 09:58:37;;;;;;;0.10;0.10;;;;;;;18.99;72.90;102372.56;5113789;28;20063;-43
2023/09/24 10:01:06;;;;;;;0.00;0.00;;;;;;;19.45;74.22;102371.63;5112898;28;20035;-45
2023/09/24 10:03:42;;;;;;;0.00;0.00;;;;;;;19.46;70.58;102373.38;5113699;28;20083;-47
2023/09/24 10:06:09;;;;;;;0.00;0.00;;;;;;;19.39;65.54;102364.53;5112944;28;20039;-45
2023/09/24 10:08:47;;;;;;;0.00;0.00;;;;;;;19.79;68.64;102372.19;5113404;28;20027;-43
2023/09/24 10:11:31;;;;;;;0.00;0.00;;;;;;;19.97;66.30;102364.63;5113575;28;20030;-46
2023/09/24 10:13:56;;;;;;;0.00;0.00;;;;;;;19.81;62.09;102354.78;5112803;28;20536;-47
2023/09/24 10:16:25;;;;;;;0.00;0.00;;;;;;;19.66;63.59;102356.28;5113303;28;20023;-47
2023/09/24 10:19:10;;;;;;;0.00;0.00;;;;;;;19.97;65.13;102350.69;5113507;28;20059;-44
2023/09/24 10:21:37;;;;;;;0.00;0.00;;;;;;;19.96;60.87;102359.38;5112507;28;20024;-47
2023/09/24 10:24:14;;;;;;;0.00;0.00;;;;;;;19.92;63.33;102347.97;5113611;28;20066;-47
2023/09/24 10:26:49;;;;;;;;;;;;;;;20.37;65.75;102352.13;5113874;28;20027;-46
2023/09/24 10:29:16;;;;;;;0.00;0.00;;;;;;;20.64;59.78;102342.81;5112201;28;20427;-45
2023/09/24 10:32:07;;;;;;;0.00;0.00;;;;;;;20.95;62.95;102343.19;5113315;28;20039;-46
2023/09/24 10:34:51;;;;;;;0.00;0.00;;;;;;;21.14;62.09;102349.50;5112434;28;20118;-46
2023/09/24 10:37:20;;;;;;;0.00;0.00;;;;;;;21.27;55.29;102344.38;5113081;28;20023;-46
2023/09/24 10:40:04;;;;;;;0.00;0.00;;;;;;;21.01;54.32;102335.38;5113230;28;20047;-43
2023/09/24 10:42:41;;;;;;;0.00;0.00;;;;;;;20.85;53.84;102338.72;5112174;28;20420;-46
2023/09/24 10:45:06;;;;;;;0.00;0.00;;;;;;;20.48;51.98;102343.53;5113282;28;20531;-43
2023/09/24 10:47:40;;;;;;;0.03;0.03;;;;;;;20.80;53.25;102335.16;5113016;28;20070;-46
2023/09/24 10:50:10;;;;;;;0.00;0.00;;;;;;;21.10;51.76;102337.22;5112278;28;20031;-48
2023/09/24 10:52:51;;;;;;;0.00;0.00;;;;;;;21.20;52.88;102330.31;5115396;28;20028;-44
2023/09/24 10:55:18;;;;;;;0.00;0.00;;;;;;;21.13;50.62;102341.63;5116496;28;20041;-43
2023/09/24 10:57:49;;;;;;;0.00;0.00;;;;;;;21.84;50.34;102334.34;5117264;28;20047;-43
2023/09/24 11:00:17;;;;;;;0.00;0.00;;;;;;;21.62;47.66;102334.19;5117176;28;20065;-44
2023/09/24 11:02:42;;;;;;;0.00;0.00;;;;;;;21.51;46.56;102335.81;5116648;28;20027;-45
2023/09/24 11:05:08;;;;;;;0.00;0.00;;;;;;;21.19;48.58;102333.81;5117371;28;20077;-46
2023/09/24 11:07:34;;;;;;;0.00;0.00;;;;;;;21.42;49.58;102334.03;5117048;28;20464;-46
2023/09/24 11:09:59;;;;;;;0.00;0.00;;;;;;;21.62;49.16;102328.94;5116508;28;20028;-47
2023/09/24 11:12:24;;;;;;;0.00;0.00;;;;;;;21.64;47.23;102335.09;5116842;28;20035;-45
2023/09/24 11:14:56;;;;;;;0.00;0.00;;;;;;;21.61;47.71;102334.19;5117011;28;20149;-46
2023/09/24 11:17:23;;;;;;;0.00;0.00;;;;;;;21.35;46.95;102330.44;5115990;28;20027;-47
2023/09/24 11:19:49;;;;;;;0.00;0.00;;;;;;;21.53;46.83;102332.34;5117174;28;20051;-45
2023/09/24 11:22:34;;;;;;;0.00;0.00;;;;;;;21.62;47.76;102334.19;5116630;28;20062;-46
2023/09/24 11:25:11;;;;;;;0.00;0.00;;;;;;;21.63;46.58;102328.06;5115591;28;20032;-45
2023/09/24 11:27:47;;;;;;;0.00;0.00;;;;;;;21.64;46.20;102337.72;5116512;28;20031;-45